Portada
METAR-TAF:

METAR-TAF

Aeroports :

Grozni, Rússia

latitud: 43-23-18N, longitud: 045-41-59E, altitud: 167 m

Observació

L'informe es va fer fa 28 minuts, a les 00:00 UTC
Vent 4 kt del Est/Nord-Est
Temperatura 21°C
Humitat 88%
Pressió 1016 hPa
Visibilitat 10 km o més
sense núvols per sota de 1500 mi sense presència de cumulonimbus.

METAR: URMG 210000Z 07002MPS CAVOK 21/19 Q1016 R26/090070 NOSIG RMK QFE747/0996

Hora: 03:28 (00:28 UTC)

Pronòstic

L'informe es va fer fa 1 hora i 28 minuts, a les 23:00 UTC
Pronòstic vàlid del 21 a les 00 UTC al 21 a les 09 UTC
Vent 6 kt del Est amb ràfegues de 16 kt
Visibilitat 10 km o més
Cel ennuvolat a una alçada de 3000 ft
Temporalment
l' 21 a les 00 UTC al 21 a les 05 UTC
Visibilitat: 3100 m
Cel ennuvolat a una alçada de 1100 ft
boirina
Temporalment
l' 21 a les 05 UTC al 21 a les 09 UTC
Vent 14 kt del Est amb ràfegues de 27 kt

TAF: URMG 202300Z 2100/2109 10003G08MPS 9999 BKN030 TEMPO 2100/2105 3100 BR BKN011 TEMPO 2105/2109 10007G14MPS

Observacions i pronòstics meteorològics de més de 4000 aeroports (METAR i TAF).

Les estacions disponibles són els punts grocs i vermells al mapa.

Posi el ratolí al punt desitjat per veure el nom de l'estació.

Feu clic per veure les observacions i els pronòstics meteorològics.

Per canviar el mapa: feu clic els botons verds amb una creu de color negre per apropar; al botó verd amb un guió per allunyar la imatge; o en les fletxes verdes per a mapes adjacents.


METAR-TAF: